Time;durP1;ratioP1;P1;durP2;ratioP2;P2;SDS_P1;SDS_P2;PMS_P1;PMS_P2;Temp;Humidity;BMP_temperature;BMP_pressure;BME280_temperature;BME280_humidity;BME280_pressure;Samples;Min_cycle;Max_cycle;Signal;HPM_P1;HPM_P2
2022/12/23 00:01:24;;;;;;;149.02;96.93;;;;;;;;;;5013739;28;20405;-49
2022/12/23 00:03:50;;;;;;;147.27;94.57;;;10.00;99.90;;;;;;5015658;28;20030;-48
2022/12/23 00:06:17;;;;;;;153.85;99.20;;;9.80;99.90;;;;;;5016411;28;20034;-49
2022/12/23 00:08:43;;;;;;;148.90;96.68;;;9.90;99.90;;;;;;5015844;28;20030;-47
2022/12/23 00:11:12;;;;;;;142.60;95.28;;;9.80;99.90;;;;;;5015800;28;20087;-47
2022/12/23 00:16:22;;;;;;;148.18;97.15;;;9.40;99.90;;;;;;5016139;28;20568;-49
2022/12/23 00:18:48;;;;;;;143.48;93.85;;;9.40;99.90;;;;;;5015720;28;20037;-50
2022/12/23 00:21:16;;;;;;;135.20;92.70;;;9.60;99.90;;;;;;5016009;28;20064;-47
2022/12/23 00:23:44;;;;;;;133.75;90.45;;;9.60;99.90;;;;;;5015580;28;20584;-48
2022/12/23 00:26:20;;;;;;;132.93;87.68;;;9.50;99.90;;;;;;5015602;28;20038;-49
2022/12/23 00:28:46;;;;;;;136.90;89.30;;;9.40;99.90;;;;;;5015769;28;20540;-47
2022/12/23 00:31:12;;;;;;;132.68;85.90;;;;;;;;;;5013661;28;20042;-51
2022/12/23 00:33:41;;;;;;;139.82;90.97;;;9.20;99.90;;;;;;5012752;28;20030;-48
2022/12/23 00:36:21;;;;;;;132.80;85.00;;;8.90;99.90;;;;;;5015114;28;20092;-47
2022/12/23 00:44:15;;;;;;;136.77;91.65;;;9.10;99.90;;;;;;5015575;28;20091;-50
2022/12/23 00:46:41;;;;;;;148.65;93.22;;;9.50;99.90;;;;;;5013198;28;20520;-46
2022/12/23 00:51:51;;;;;;;124.75;80.07;;;9.20;99.90;;;;;;4995672;28;20048;-48
2022/12/23 00:54:17;;;;;;;124.90;77.88;;;9.00;99.90;;;;;;4994041;28;20046;-50
2022/12/23 00:56:43;;;;;;;124.97;79.28;;;;;;;;;;5010197;28;20038;-50
2022/12/23 00:59:09;;;;;;;125.50;76.53;;;8.90;99.90;;;;;;4995449;28;20026;-48
2022/12/23 01:07:05;;;;;;;136.55;85.07;;;8.40;99.90;;;;;;4995567;28;20037;-50
2022/12/23 01:09:31;;;;;;;123.53;79.88;;;8.80;99.90;;;;;;5008416;28;20044;-47
2022/12/23 01:11:57;;;;;;;117.90;79.57;;;8.90;99.90;;;;;;5014586;28;20074;-48
2022/12/23 01:14:22;;;;;;;126.57;78.53;;;8.80;99.90;;;;;;5013042;28;20034;-48
2022/12/23 01:16:48;;;;;;;119.47;81.22;;;8.80;99.90;;;;;;5014734;28;20492;-47
2022/12/23 01:19:14;;;;;;;122.50;81.22;;;9.20;99.90;;;;;;5014973;28;20105;-50
2022/12/23 01:21:41;;;;;;;123.35;81.68;;;;;;;;;;5014839;28;20450;-48
2022/12/23 01:24:07;;;;;;;120.68;79.15;;;;;;;;;;5014589;28;20034;-48
2022/12/23 01:26:33;;;;;;;115.72;79.35;;;;;;;;;;5014536;28;20022;-50
2022/12/23 01:28:59;;;;;;;115.88;78.93;;;9.30;99.90;;;;;;5014649;28;20074;-48
2022/12/23 01:31:26;;;;;;;106.78;72.57;;;9.20;99.90;;;;;;5012701;28;20460;-51
2022/12/23 01:33:52;;;;;;;109.55;74.20;;;9.20;99.90;;;;;;5014475;28;20033;-47
2022/12/23 01:36:19;;;;;;;108.38;71.78;;;9.10;99.90;;;;;;5014262;28;20033;-51
2022/12/23 01:38:45;;;;;;;113.68;73.97;;;9.10;99.90;;;;;;5014510;28;20026;-49
2022/12/23 01:44:42;;;;;;;111.45;71.57;;;9.00;99.90;;;;;;5014520;28;20124;-49
2022/12/23 01:47:15;;;;;;;107.28;73.75;;;8.90;99.90;;;;;;4993810;28;20121;-49
2022/12/23 01:49:42;;;;;;;107.65;72.70;;;9.20;99.90;;;;;;4994512;28;20038;-48
2022/12/23 01:52:09;;;;;;;109.85;78.00;;;9.40;99.90;;;;;;4994592;28;20125;-50
2022/12/23 01:54:36;;;;;;;105.15;75.32;;;9.50;99.90;;;;;;4994940;28;20076;-48
2022/12/23 01:57:01;;;;;;;107.50;72.07;;;9.80;99.90;;;;;;5058773;28;20034;-50
2022/12/23 02:04:57;;;;;;;101.53;69.93;;;9.70;99.90;;;;;;4994923;28;20029;-51
2022/12/23 02:10:07;;;;;;;87.18;61.15;;;9.40;99.90;;;;;;4994680;28;20097;-49
2022/12/23 02:12:42;;;;;;;87.88;63.45;;;9.60;99.90;;;;;;4994198;28;20153;-47
2022/12/23 02:18:13;;;;;;;92.30;63.67;;;9.60;99.90;;;;;;4994498;28;20143;-51
2022/12/23 02:20:58;;;;;;;167.85;98.78;;;9.80;99.90;;;;;;4993718;28;20026;-48
2022/12/23 02:24:00;;;;;;;109.10;74.20;;;9.70;99.90;;;;;;4994178;28;20022;-46
2022/12/23 02:26:40;;;;;;;129.38;85.85;;;9.30;99.90;;;;;;4993966;28;20791;-50
2022/12/23 02:29:42;;;;;;;155.35;93.72;;;9.60;99.90;;;;;;4994020;28;20382;-51
2022/12/23 02:32:32;;;;;;;121.30;77.50;;;9.70;99.90;;;;;;4994330;28;20343;-47
2022/12/23 02:35:13;;;;;;;109.95;73.45;;;9.30;99.90;;;;;;4994179;28;20153;-47
2022/12/23 02:38:09;;;;;;;114.47;73.60;;;9.30;99.90;;;;;;4994116;28;20084;-51
2022/12/23 02:40:56;;;;;;;104.55;70.10;;;9.50;99.90;;;;;;4993831;28;20069;-50
2022/12/23 02:43:48;;;;;;;99.38;69.05;;;9.90;99.90;;;;;;4994495;28;20061;-48
2022/12/23 02:46:26;;;;;;;103.35;70.22;;;9.60;99.90;;;;;;4993679;28;20413;-51
2022/12/23 02:49:08;;;;;;;104.45;70.18;;;9.60;99.90;;;;;;4993753;28;20121;-49
2022/12/23 02:51:38;;;;;;;121.60;78.88;;;9.50;99.90;;;;;;5011147;28;20134;-50
2022/12/23 02:54:10;;;;;;;138.35;87.65;;;9.50;99.90;;;;;;5011350;28;20084;-46
2022/12/23 02:56:38;;;;;;;113.38;75.75;;;9.50;99.90;;;;;;5011269;28;20109;-50
2022/12/23 02:59:34;;;;;;;119.95;82.20;;;9.40;99.90;;;;;;5014148;28;20030;-51
2022/12/23 03:02:00;;;;;;;122.30;76.93;;;9.40;99.90;;;;;;5015088;28;20453;-47
2022/12/23 03:04:26;;;;;;;103.13;69.18;;;9.30;99.90;;;;;;4982440;28;20042;-49
2022/12/23 03:06:54;;;;;;;100.07;72.47;;;9.20;99.90;;;;;;5015083;28;20117;-48
2022/12/23 03:09:28;;;;;;;92.00;65.40;;;9.20;99.90;;;;;;4982352;28;20045;-49
2022/12/23 03:12:12;;;;;;;97.60;67.93;;;9.20;99.90;;;;;;5015057;28;20082;-49
2022/12/23 03:14:49;;;;;;;93.95;64.80;;;9.20;99.90;;;;;;5014960;28;20129;-50
2022/12/23 03:17:45;;;;;;;90.80;65.32;;;9.00;99.90;;;;;;5015191;28;20034;-48
2022/12/23 03:20:17;;;;;;;89.65;65.50;;;9.30;99.90;;;;;;5014970;28;20026;-48
2022/12/23 03:22:57;;;;;;;91.57;63.17;;;9.20;99.90;;;;;;5004252;28;20544;-51
2022/12/23 03:26:00;;;;;;;92.13;63.88;;;9.20;99.90;;;;;;4997339;28;20031;-45
2022/12/23 03:28:40;;;;;;;84.28;57.70;;;8.90;99.90;;;;;;5014622;28;20042;-52
2022/12/23 03:31:10;;;;;;;97.55;68.53;;;8.80;99.90;;;;;;5014673;28;20100;-46
2022/12/23 03:33:41;;;;;;;167.70;89.15;;;8.30;99.90;;;;;;5014560;28;20490;-49
2022/12/23 03:36:20;;;;;;;244.90;62.75;;;8.50;99.90;;;;;;4997909;28;20501;-48
2022/12/23 03:38:48;;;;;;;143.52;46.63;;;8.20;99.90;;;;;;4975379;28;20046;-49
2022/12/23 03:41:23;;;;;;;235.30;55.00;;;8.40;99.90;;;;;;4975504;28;20516;-48
2022/12/23 03:43:56;;;;;;;336.83;59.05;;;8.10;99.90;;;;;;4975280;28;20641;-47
2022/12/23 03:46:41;;;;;;;235.85;50.97;;;8.10;99.90;;;;;;4975202;28;20060;-49
2022/12/23 03:49:31;;;;;;;334.73;56.35;;;7.90;99.90;;;;;;4975290;28;20043;-48
2022/12/23 03:52:26;;;;;;;226.75;51.08;;;8.50;99.90;;;;;;4975338;28;20046;-51
2022/12/23 03:54:58;;;;;;;132.77;45.55;;;8.30;99.90;;;;;;4972521;28;20042;-51
2022/12/23 03:57:50;;;;;;;83.10;45.35;;;8.40;99.90;;;;;;4975155;28;20042;-52
2022/12/23 04:00:16;;;;;;;95.57;48.30;;;8.20;99.90;;;;;;4880350;29;20061;-49
2022/12/23 04:03:03;;;;;;;76.22;50.85;;;8.80;99.90;;;;;;4879789;29;20067;-51
2022/12/23 04:05:29;;;;;;;68.80;51.10;;;;;;;;;;4879932;29;20117;-51
2022/12/23 04:08:11;;;;;;;72.72;48.97;;;8.30;99.90;;;;;;4880074;29;20032;-51
2022/12/23 04:10:36;;;;;;;69.03;47.35;;;8.70;99.90;;;;;;4911543;29;20040;-48
2022/12/23 04:13:02;;;;;;;66.50;46.75;;;9.00;99.90;;;;;;4933245;29;20481;-49
2022/12/23 04:15:29;;;;;;;54.70;40.53;;;;;;;;;;4917413;29;20039;-46
2022/12/23 04:17:56;;;;;;;55.38;42.00;;;9.00;99.90;;;;;;4917451;29;20103;-51
2022/12/23 04:20:22;;;;;;;51.78;37.38;;;8.90;99.90;;;;;;4917311;29;20054;-48
2022/12/23 04:22:48;;;;;;;58.80;42.40;;;9.00;99.90;;;;;;4917415;29;20067;-47
2022/12/23 04:25:15;;;;;;;51.17;37.42;;;9.00;99.90;;;;;;4932882;29;20071;-49
2022/12/23 04:27:42;;;;;;;53.65;39.33;;;;;;;;;;4917429;29;20040;-49
2022/12/23 04:30:09;;;;;;;53.45;40.25;;;8.90;99.90;;;;;;4932649;29;20037;-50
2022/12/23 04:32:35;;;;;;;52.05;37.03;;;8.80;99.90;;;;;;4917302;29;20036;-51
2022/12/23 04:35:01;;;;;;;73.72;51.47;;;;;;;;;;4916945;29;20396;-52
2022/12/23 04:37:27;;;;;;;60.53;42.10;;;;;;;;;;4965290;28;20125;-50
2022/12/23 04:39:54;;;;;;;81.30;64.75;;;;;;;;;;4996084;28;20033;-50
2022/12/23 04:42:20;;;;;;;64.47;45.13;;;;;;;;;;5010316;28;20129;-51
2022/12/23 04:44:46;;;;;;;55.25;40.58;;;;;;;;;;4996089;28;20026;-49
2022/12/23 04:47:12;;;;;;;73.47;48.03;;;;;;;;;;5010100;28;20134;-51
2022/12/23 04:49:38;;;;;;;86.22;56.55;;;;;;;;;;5060163;28;20042;-48
2022/12/23 04:52:04;;;;;;;62.65;45.35;;;;;;;;;;4995624;28;20069;-51
2022/12/23 04:54:30;;;;;;;72.57;53.45;;;;;;;;;;4995764;28;20089;-46
2022/12/23 04:56:56;;;;;;;85.55;56.17;;;;;;;;;;4995624;28;20039;-50
2022/12/23 04:59:22;;;;;;;30.55;22.15;;;;;;;;;;4995631;28;20034;-50
2022/12/23 05:01:49;;;;;;;76.78;51.55;;;;;;;;;;5007263;28;20061;-51
2022/12/23 05:04:15;;;;;;;67.80;46.63;;;;;;;;;;5032624;28;20046;-48
2022/12/23 05:06:41;;;;;;;64.10;43.53;;;;;;;;;;5015041;28;20049;-49
2022/12/23 05:09:07;;;;;;;62.88;44.33;;;;;;;;;;5030873;28;20152;-51
2022/12/23 05:11:33;;;;;;;62.10;44.17;;;;;;;;;;5015504;28;21359;-50
2022/12/23 05:13:59;;;;;;;57.20;41.38;;;;;;;;;;5023963;28;20212;-50
2022/12/23 05:16:25;;;;;;;55.38;40.47;;;;;;;;;;5021523;28;20041;-50
2022/12/23 05:18:51;;;;;;;65.63;45.72;;;;;;;;;;5032231;28;20064;-51
2022/12/23 05:21:18;;;;;;;66.85;47.78;;;;;;;;;;5031635;28;20033;-48
2022/12/23 05:23:44;;;;;;;60.13;43.78;;;;;;;;;;5015948;28;20559;-48
2022/12/23 05:26:10;;;;;;;52.83;38.60;;;;;;;;;;5030142;28;20469;-47
2022/12/23 05:28:36;;;;;;;34.40;27.10;;;;;;;;;;5032222;28;20497;-49
2022/12/23 05:31:06;;;;;;;50.33;37.45;;;9.70;99.90;;;;;;5032100;28;20034;-51
2022/12/23 05:33:33;;;;;;;52.13;40.78;;;9.70;99.90;;;;;;5032195;28;20025;-50
2022/12/23 05:35:59;;;;;;;44.30;37.00;;;9.10;99.90;;;;;;5001244;28;20034;-47
2022/12/23 05:38:25;;;;;;;45.88;37.58;;;9.30;99.90;;;;;;4994983;28;20450;-49
2022/12/23 05:40:51;;;;;;;41.85;34.30;;;9.10;99.90;;;;;;5000879;28;20088;-50
2022/12/23 05:43:17;;;;;;;48.47;35.38;;;9.20;99.90;;;;;;5012698;28;20045;-50
2022/12/23 05:45:44;;;;;;;44.05;34.63;;;;;;;;;;5014054;28;20046;-49
2022/12/23 05:48:10;;;;;;;42.83;34.10;;;9.00;99.90;;;;;;5014580;28;20485;-49
2022/12/23 05:50:37;;;;;;;43.90;33.08;;;9.10;99.90;;;;;;5013797;28;20064;-49
2022/12/23 05:53:03;;;;;;;37.92;30.83;;;9.00;99.90;;;;;;5011508;28;20033;-48
2022/12/23 05:55:28;;;;;;;36.53;28.17;;;9.20;99.90;;;;;;5013573;28;20042;-50
2022/12/23 05:57:54;;;;;;;32.53;28.48;;;9.00;99.90;;;;;;5011253;28;20446;-49
2022/12/23 06:00:20;;;;;;;39.28;31.40;;;8.80;99.90;;;;;;5009826;28;20397;-48
2022/12/23 06:02:46;;;;;;;34.03;29.20;;;8.80;99.90;;;;;;5010628;28;20033;-50
2022/12/23 06:05:12;;;;;;;35.22;29.58;;;8.70;99.90;;;;;;5007749;28;20077;-50
2022/12/23 06:07:39;;;;;;;34.95;28.90;;;8.70;99.90;;;;;;5006013;28;20481;-51
2022/12/23 06:10:06;;;;;;;38.67;31.20;;;8.60;99.90;;;;;;5011193;28;20176;-49
2022/12/23 06:12:32;;;;;;;40.80;32.75;;;8.40;99.90;;;;;;5024482;28;20121;-51
2022/12/23 06:14:58;;;;;;;39.88;32.38;;;;;;;;;;5011946;28;20120;-50
2022/12/23 06:17:24;;;;;;;39.15;31.95;;;8.60;99.90;;;;;;5013495;28;20048;-49
2022/12/23 06:19:50;;;;;;;39.13;30.60;;;;;;;;;;4992886;28;20490;-49
2022/12/23 06:22:16;;;;;;;36.53;29.77;;;;;;;;;;5000415;28;20014;-51
2022/12/23 06:24:43;;;;;;;39.30;31.48;;;;;;;;;;5001927;28;20068;-58
2022/12/23 06:27:09;;;;;;;38.92;29.48;;;;;;;;;;5012688;28;20057;-49
2022/12/23 06:29:36;;;;;;;42.42;32.45;;;;;;;;;;5013745;28;20377;-57
2022/12/23 06:32:02;;;;;;;37.75;28.75;;;8.70;99.90;;;;;;5013057;28;20393;-55
2022/12/23 06:34:28;;;;;;;63.60;45.72;;;;;;;;;;5011580;28;20040;-60
2022/12/23 06:36:54;;;;;;;79.80;57.85;;;;;;;;;;5023664;28;20041;-57
2022/12/23 06:39:20;;;;;;;79.32;56.53;;;8.40;99.90;;;;;;4990813;28;20095;-59
2022/12/23 06:41:46;;;;;;;72.80;54.20;;;;;;;;;;5027950;28;20045;-53
2022/12/23 06:44:12;;;;;;;101.15;63.75;;;;;;;;;;5013436;28;20503;-62
2022/12/23 06:46:37;;;;;;;93.07;60.60;;;8.50;99.90;;;;;;5013091;28;20057;-60
2022/12/23 06:49:03;;;;;;;134.52;65.40;;;8.70;99.90;;;;;;5013689;28;20029;-60
2022/12/23 06:51:29;;;;;;;171.60;80.95;;;8.70;99.90;;;;;;5011490;28;20121;-61
2022/12/23 06:53:54;;;;;;;151.23;80.25;;;8.70;99.90;;;;;;5013378;28;20029;-56
2022/12/23 06:56:20;;;;;;;210.48;92.70;;;8.50;99.90;;;;;;5013694;28;20022;-58
2022/12/23 06:58:46;;;;;;;225.07;95.18;;;8.60;99.90;;;;;;5013425;28;20066;-56
2022/12/23 07:01:12;;;;;;;227.68;102.35;;;8.70;99.90;;;;;;5027939;28;20551;-56
2022/12/23 07:03:38;;;;;;;207.20;101.35;;;8.80;99.90;;;;;;5013451;28;20052;-61
2022/12/23 07:06:04;;;;;;;178.85;96.70;;;8.80;99.90;;;;;;4995210;28;20447;-60
2022/12/23 07:08:30;;;;;;;203.15;105.30;;;;;;;;;;4995032;28;20038;-59
2022/12/23 07:10:59;;;;;;;179.60;104.15;;;;;;;;;;5012490;28;20034;-54
2022/12/23 07:13:26;;;;;;;171.50;94.47;;;;;;;;;;5012789;28;20024;-56
2022/12/23 07:15:52;;;;;;;138.05;83.75;;;8.90;99.90;;;;;;5013027;28;20033;-58
2022/12/23 07:18:18;;;;;;;157.25;72.80;;;8.90;99.90;;;;;;4994825;28;20037;-55
2022/12/23 07:20:43;;;;;;;124.80;62.08;;;8.60;99.90;;;;;;5027327;28;20046;-59
2022/12/23 07:23:09;;;;;;;99.55;58.58;;;8.50;99.90;;;;;;5013366;28;20113;-56
2022/12/23 07:25:35;;;;;;;105.80;49.38;;;9.00;99.90;;;;;;5012943;28;20026;-58
2022/12/23 07:28:01;;;;;;;157.32;60.78;;;;;;;;;;5013081;28;20034;-58
2022/12/23 07:30:27;;;;;;;199.95;75.25;;;9.70;99.90;;;;;;5012834;28;20125;-52
2022/12/23 07:32:54;;;;;;;165.75;73.43;;;;;;;;;;5013318;28;20385;-56
2022/12/23 07:35:20;;;;;;;210.52;101.53;;;;;;;;;;5013548;28;20038;-62
2022/12/23 07:37:50;;;;;;;153.80;82.50;;;13.20;99.90;;;;;;5012913;28;20164;-55
2022/12/23 07:40:17;;;;;;;114.32;67.15;;;;;;;;;;5012827;28;20385;-56
2022/12/23 07:42:42;;;;;;;90.38;58.30;;;14.20;99.90;;;;;;5013467;28;20030;-56
2022/12/23 07:45:09;;;;;;;99.78;64.70;;;15.60;99.90;;;;;;5013724;28;20408;-59
2022/12/23 07:47:35;;;;;;;87.90;61.75;;;;;;;;;;4998641;28;20046;-63
2022/12/23 07:50:00;;;;;;;79.55;58.42;;;19.30;99.90;;;;;;4998442;28;20034;-55
2022/12/23 07:52:27;;;;;;;100.28;69.28;;;19.30;99.90;;;;;;5031192;28;20046;-55
2022/12/23 07:54:53;;;;;;;121.78;84.05;;;;;;;;;;5016700;28;20056;-55
2022/12/23 07:57:20;;;;;;;90.65;65.25;;;;;;;;;;5016628;28;20065;-57
2022/12/23 07:59:45;;;;;;;95.63;70.72;;;19.90;99.90;;;;;;5016385;28;20041;-56
2022/12/23 08:02:11;;;;;;;75.60;60.47;;;19.80;99.90;;;;;;5014583;28;20381;-56
2022/12/23 08:04:37;;;;;;;38.10;31.98;;;20.10;99.90;;;;;;5016281;28;20060;-54
2022/12/23 08:07:02;;;;;;;53.00;44.15;;;19.30;99.90;;;;;;5014515;28;20049;-50
2022/12/23 08:09:29;;;;;;;51.55;43.75;;;;;;;;;;5014286;28;20037;-59
2022/12/23 08:11:55;;;;;;;41.33;33.95;;;;;;;;;;5016226;28;20080;-55
2022/12/23 08:14:22;;;;;;;29.00;25.90;;;;;;;;;;5016285;28;20083;-52
2022/12/23 08:16:48;;;;;;;25.65;23.05;;;;;;;;;;5014273;28;20042;-58
2022/12/23 08:19:13;;;;;;;20.98;18.27;;;23.70;99.90;;;;;;5015910;28;20390;-52
2022/12/23 08:21:39;;;;;;;32.75;28.40;;;25.30;99.90;;;;;;5015899;28;20038;-55
2022/12/23 08:24:05;;;;;;;27.45;24.42;;;24.90;99.90;;;;;;5015894;28;20033;-54
2022/12/23 08:26:32;;;;;;;26.58;23.42;;;24.80;97.50;;;;;;5014048;28;20030;-52
2022/12/23 08:28:59;;;;;;;27.08;24.17;;;27.10;98.20;;;;;;5015826;28;20022;-54
2022/12/23 08:31:27;;;;;;;24.42;21.65;;;26.90;97.10;;;;;;5015586;28;20093;-58
2022/12/23 08:33:55;;;;;;;21.38;19.25;;;27.90;99.90;;;;;;5013881;28;20393;-51
2022/12/23 08:36:23;;;;;;;23.58;20.92;;;28.20;96.30;;;;;;5015575;28;20042;-50
2022/12/23 08:38:51;;;;;;;23.42;21.05;;;28.70;94.30;;;;;;5015498;28;20022;-58
2022/12/23 08:41:22;;;;;;;24.35;21.85;;;29.60;93.90;;;;;;5015855;28;20079;-55
2022/12/23 08:43:48;;;;;;;22.13;19.83;;;30.00;92.90;;;;;;5029200;28;20042;-55
2022/12/23 08:46:14;;;;;;;21.85;19.65;;;;;;;;;;5015261;28;20050;-49
2022/12/23 08:48:40;;;;;;;21.05;18.88;;;28.90;92.60;;;;;;5015732;28;20096;-57
2022/12/23 08:51:08;;;;;;;21.75;19.55;;;28.80;90.00;;;;;;5015250;28;20038;-57
2022/12/23 08:53:35;;;;;;;21.75;19.63;;;29.50;91.60;;;;;;5012509;28;20030;-63
2022/12/23 08:56:06;;;;;;;20.52;18.48;;;28.90;87.40;;;;;;5014947;28;20619;-49
2022/12/23 08:58:37;;;;;;;19.92;17.92;;;27.90;92.00;;;;;;5015043;28;20030;-57
2022/12/23 09:01:04;;;;;;;21.77;19.50;;;28.60;91.70;;;;;;5013227;28;20045;-57
2022/12/23 09:03:30;;;;;;;22.17;20.17;;;;;;;;;;4996825;28;20038;-55
2022/12/23 09:05:56;;;;;;;24.92;22.52;;;29.40;91.60;;;;;;5014772;28;20095;-55
2022/12/23 09:08:22;;;;;;;27.42;24.48;;;;;;;;;;4995765;28;20117;-60
2022/12/23 09:10:48;;;;;;;24.67;22.05;;;;;;;;;;4995183;28;20505;-53
2022/12/23 09:13:15;;;;;;;24.15;21.58;;;29.20;90.80;;;;;;4995391;28;20030;-56
2022/12/23 09:15:42;;;;;;;19.92;18.00;;;;;;;;;;4995258;28;20113;-57
2022/12/23 09:18:08;;;;;;;17.45;15.75;;;;;;;;;;4995501;28;20084;-53
2022/12/23 09:20:34;;;;;;;17.80;16.00;;;;;;;;;;4995072;28;20023;-59
2022/12/23 09:23:01;;;;;;;19.70;17.80;;;;;;;;;;4995180;28;20083;-59
2022/12/23 09:25:27;;;;;;;19.60;17.80;;;;;;;;;;4995264;28;20471;-56
2022/12/23 09:27:53;;;;;;;23.30;20.80;;;;;;;;;;4995311;28;20115;-57
2022/12/23 09:30:20;;;;;;;22.63;20.52;;;;;;;;;;4994066;28;20092;-60
2022/12/23 09:32:46;;;;;;;20.70;18.73;;;;;;;;;;5003836;28;20045;-52
2022/12/23 09:35:12;;;;;;;18.42;16.70;;;;;;;;;;5012786;28;20492;-58
2022/12/23 09:37:38;;;;;;;18.10;16.30;;;;;;;;;;5012523;28;20029;-58
2022/12/23 09:40:05;;;;;;;18.23;16.63;;;;;;;;;;5042385;28;20033;-54
2022/12/23 09:42:44;;;;;;;17.23;15.63;;;;;;;;;;5012886;28;20029;-58
2022/12/23 09:45:13;;;;;;;15.55;14.15;;;;;;;;;;5011846;28;20471;-56
2022/12/23 09:47:41;;;;;;;19.05;17.35;;;;;;;;;;4992923;28;20617;-55
2022/12/23 09:50:20;;;;;;;17.38;15.70;;;;;;;;;;5013164;28;20034;-52
2022/12/23 09:52:52;;;;;;;16.70;14.95;;;;;;;;;;5012708;28;20037;-51
2022/12/23 09:55:19;;;;;;;18.92;17.15;;;;;;;;;;5012946;28;20034;-50
2022/12/23 09:57:55;;;;;;;19.25;17.30;;;;;;;;;;4990836;28;20422;-53
2022/12/23 10:00:22;;;;;;;20.15;18.25;;;;;;;;;;5010711;28;20584;-53
2022/12/23 10:02:51;;;;;;;19.30;17.48;;;;;;;;;;4994529;28;20037;-52
2022/12/23 10:05:30;;;;;;;20.70;18.65;;;;;;;;;;5010336;28;20107;-56
2022/12/23 10:08:22;;;;;;;21.63;19.63;;;;;;;;;;5008760;28;20092;-52
2022/12/23 10:10:51;;;;;;;22.45;20.30;;;;;;;;;;5007985;28;20050;-52
2022/12/23 10:13:55;;;;;;;22.90;20.70;;;;;;;;;;5011382;28;20038;-52
2022/12/23 10:16:31;;;;;;;22.50;19.42;;;;;;;;;;4972719;28;20421;-51
2022/12/23 10:19:12;;;;;;;24.88;20.23;;;;;;;;;;4972447;28;20435;-53
2022/12/23 10:21:47;;;;;;;23.50;21.20;;;;;;;;;;4972623;28;20039;-54
2022/12/23 10:24:16;;;;;;;23.70;21.20;;;;;;;;;;4972555;28;20038;-53
2022/12/23 10:26:55;;;;;;;24.27;21.88;;;;;;;;;;4972336;28;20058;-52
2022/12/23 10:29:22;;;;;;;25.02;22.55;;;;;;;;;;4972598;28;20403;-52
2022/12/23 10:32:07;;;;;;;27.65;24.80;;;;;;;;;;4972520;28;20126;-55
2022/12/23 10:34:33;;;;;;;22.00;19.83;;;;;;;;;;4956245;28;20046;-52
2022/12/23 10:36:59;;;;;;;22.10;19.98;;;;;;;;;;4972328;28;20403;-51
2022/12/23 10:39:25;;;;;;;21.73;19.58;;;;;;;;;;4972460;28;20027;-56
2022/12/23 10:41:57;;;;;;;19.08;17.08;;;;;;;;;;4972361;28;20035;-54
2022/12/23 10:44:27;;;;;;;18.67;16.67;;;;;;;;;;4971025;28;20035;-54
2022/12/23 10:46:53;;;;;;;15.32;13.70;;;;;;;;;;4987071;28;20049;-52
2022/12/23 10:49:43;;;;;;;13.18;11.80;;;27.40;84.20;;;;;;5012500;28;20046;-53
2022/12/23 10:52:17;;;;;;;14.80;13.30;;;28.00;85.90;;;;;;5012672;28;20115;-51
2022/12/23 10:54:45;;;;;;;13.20;11.38;;;28.20;90.50;;;;;;5011837;28;20088;-56
2022/12/23 10:57:14;;;;;;;17.10;14.50;;;28.50;84.90;;;;;;5012618;28;20026;-50
2022/12/23 10:59:40;;;;;;;18.27;11.18;;;;;;;;;;5012224;28;20243;-54
2022/12/23 11:02:12;;;;;;;21.30;11.52;;;;;;;;;;5012243;28;20061;-51
2022/12/23 11:04:43;;;;;;;17.40;10.18;;;;;;;;;;5011932;28;20037;-52
2022/12/23 11:07:12;;;;;;;11.57;8.32;;;;;;;;;;5012170;28;20044;-54
2022/12/23 11:10:14;;;;;;;7.93;7.07;;;26.70;82.60;;;;;;5012227;28;20037;-52
2022/12/23 11:12:43;;;;;;;9.65;8.73;;;27.30;84.20;;;;;;5010567;28;20052;-55
2022/12/23 11:15:54;;;;;;;8.07;7.13;;;27.60;83.40;;;;;;5023781;28;20069;-53
2022/12/23 11:18:20;;;;;;;8.15;7.35;;;27.90;84.10;;;;;;5008836;28;20400;-53
2022/12/23 11:21:04;;;;;;;9.63;8.65;;;27.80;83.00;;;;;;4984905;28;20081;-53
2022/12/23 11:23:34;;;;;;;9.07;8.18;;;27.60;82.00;;;;;;5002389;28;20046;-54
2022/12/23 11:26:02;;;;;;;10.55;7.18;;;27.60;81.90;;;;;;5012739;28;20089;-54
2022/12/23 11:28:30;;;;;;;7.82;7.03;;;27.20;82.30;;;;;;5009729;28;20505;-53
2022/12/23 11:31:06;;;;;;;7.35;5.50;;;26.00;82.80;;;;;;5011279;28;20084;-49
2022/12/23 11:33:36;;;;;;;6.85;5.60;;;25.40;91.20;;;;;;4995679;28;20053;-49
2022/12/23 11:36:23;;;;;;;5.88;4.95;;;25.50;83.40;;;;;;5012063;28;20077;-48
2022/12/23 11:39:12;;;;;;;7.05;5.70;;;24.90;84.60;;;;;;5012927;28;20034;-49
2022/12/23 11:41:51;;;;;;;6.82;5.28;;;24.80;84.80;;;;;;5012679;28;20092;-50
2022/12/23 11:44:38;;;;;;;5.60;5.07;;;25.40;85.50;;;;;;5012897;28;20030;-48
2022/12/23 11:47:21;;;;;;;7.45;5.35;;;26.10;96.10;;;;;;5012765;28;20545;-50
2022/12/23 11:49:50;;;;;;;7.28;5.43;;;26.20;98.50;;;;;;4993464;28;20529;-49
2022/12/23 11:52:20;;;;;;;8.07;7.28;;;;;;;;;;4990827;28;20117;-50
2022/12/23 11:55:00;;;;;;;9.80;8.82;;;25.60;93.50;;;;;;5003059;28;20489;-50
2022/12/23 11:57:41;;;;;;;5.45;4.95;;;25.80;84.90;;;;;;5013052;28;20044;-50
2022/12/23 12:00:31;;;;;;;5.28;4.78;;;23.50;84.00;;;;;;5012211;28;20081;-52
2022/12/23 12:03:02;;;;;;;9.13;6.25;;;24.70;99.60;;;;;;5012363;28;20033;-53
2022/12/23 12:05:40;;;;;;;7.43;5.07;;;24.90;91.90;;;;;;4996807;28;20427;-54
2022/12/23 12:08:10;;;;;;;6.80;5.68;;;24.90;99.60;;;;;;4995222;28;20097;-53
2022/12/23 12:10:39;;;;;;;5.57;4.50;;;24.70;99.90;;;;;;4998517;28;20163;-55
2022/12/23 12:13:07;;;;;;;4.63;3.85;;;;;;;;;;5045732;28;20124;-54
2022/12/23 12:15:43;;;;;;;5.93;3.80;;;23.90;99.90;;;;;;5014851;28;20124;-55
2022/12/23 12:18:14;;;;;;;4.57;3.80;;;24.30;87.40;;;;;;5014251;28;20057;-53
2022/12/23 12:20:43;;;;;;;17.55;12.48;;;;;;;;;;5014447;28;20826;-51
2022/12/23 12:23:14;;;;;;;8.65;6.60;;;;;;;;;;5010463;28;20037;-49
2022/12/23 12:25:46;;;;;;;10.55;7.50;;;21.80;99.90;;;;;;5044174;28;20046;-55
2022/12/23 12:28:23;;;;;;;6.90;5.03;;;;;;;;;;5011006;28;20030;-53
2022/12/23 12:30:52;;;;;;;11.20;8.18;;;;;;;;;;5008291;28;20034;-54
2022/12/23 12:33:24;;;;;;;5.97;4.70;;;;;;;;;;5009291;28;20120;-53
2022/12/23 12:35:56;;;;;;;5.00;3.97;;;21.70;97.50;;;;;;5010591;28;20042;-54
2022/12/23 12:38:22;;;;;;;7.22;5.40;;;;;;;;;;5008383;28;20160;-52
2022/12/23 12:41:00;;;;;;;4.10;3.17;;;21.70;96.40;;;;;;5010684;28;20030;-54
2022/12/23 12:43:30;;;;;;;5.15;4.03;;;;;;;;;;5009189;28;20034;-53
2022/12/23 12:46:29;;;;;;;5.88;4.40;;;21.30;90.90;;;;;;5027145;28;20045;-53
2022/12/23 12:48:59;;;;;;;4.40;2.95;;;;;;;;;;5008929;28;20563;-53
2022/12/23 12:51:43;;;;;;;9.30;6.25;;;21.00;98.00;;;;;;5009118;28;20612;-52
2022/12/23 12:54:25;;;;;;;4.05;2.78;;;;;;;;;;5008599;28;20029;-52
2022/12/23 12:56:53;;;;;;;5.25;4.03;;;21.20;99.90;;;;;;5011519;28;20073;-53
2022/12/23 12:59:21;;;;;;;5.30;3.53;;;;;;;;;;5008089;28;20097;-53
2022/12/23 13:02:06;;;;;;;5.47;3.92;;;;;;;;;;5011574;28;20466;-53
2022/12/23 13:04:44;;;;;;;10.15;5.18;;;20.60;99.90;;;;;;5012946;28;20048;-54
2022/12/23 13:07:18;;;;;;;6.45;4.00;;;;;;;;;;5013998;28;20044;-53
2022/12/23 13:09:53;;;;;;;4.72;3.45;;;;;;;;;;5013549;28;20033;-53
2022/12/23 13:12:48;;;;;;;7.10;4.15;;;19.80;99.90;;;;;;5013781;28;20552;-54
2022/12/23 13:15:28;;;;;;;6.07;3.95;;;20.00;96.40;;;;;;5013696;28;20061;-53
2022/12/23 13:18:13;;;;;;;9.35;5.35;;;;;;;;;;5013355;28;20508;-53
2022/12/23 13:20:51;;;;;;;6.68;3.92;;;19.60;92.20;;;;;;5013405;28;20137;-53
2022/12/23 13:23:44;;;;;;;17.48;10.25;;;19.50;97.40;;;;;;5011646;28;20099;-54
2022/12/23 13:26:23;;;;;;;12.07;8.50;;;19.50;99.90;;;;;;5013319;28;20069;-52
2022/12/23 13:29:23;;;;;;;12.55;8.15;;;20.60;98.50;;;;;;5013618;28;20034;-53
2022/12/23 13:32:03;;;;;;;14.80;9.05;;;20.80;98.90;;;;;;5013525;28;20041;-52
2022/12/23 13:34:41;;;;;;;17.30;10.68;;;20.80;97.10;;;;;;5013503;28;20087;-52
2022/12/23 13:37:38;;;;;;;9.23;5.60;;;20.20;99.90;;;;;;5013331;28;20044;-52
2022/12/23 13:40:27;;;;;;;5.65;3.25;;;20.80;98.50;;;;;;5013363;28;20179;-53
2022/12/23 13:42:57;;;;;;;7.30;4.82;;;20.00;99.90;;;;;;5011161;28;20029;-52
2022/12/23 13:45:30;;;;;;;9.23;6.07;;;20.40;99.90;;;;;;5010934;28;20057;-52
2022/12/23 13:48:04;;;;;;;8.15;4.47;;;20.80;99.90;;;;;;5013276;28;20030;-54
2022/12/23 13:50:49;;;;;;;6.10;3.47;;;21.20;99.90;;;;;;5013061;28;20041;-53
2022/12/23 13:53:32;;;;;;;6.90;6.00;;;20.20;99.90;;;;;;5012876;28;20038;-53
2022/12/23 13:56:12;;;;;;;7.63;5.63;;;20.20;99.90;;;;;;5012666;28;20521;-53
2022/12/23 13:58:39;;;;;;;9.32;6.35;;;20.20;98.60;;;;;;5013064;28;20358;-54
2022/12/23 14:01:08;;;;;;;11.77;6.78;;;20.40;99.90;;;;;;5012782;28;20046;-53